sensor_id;sensor_type;location;lat;lon;timestamp;temperature;humidity
38380;DHT22;38377;47.418;18.882;2022-12-07T00:01:19;1.50;99.90
38380;DHT22;38377;47.418;18.882;2022-12-07T00:03:46;1.40;99.90
38380;DHT22;38377;47.418;18.882;2022-12-07T00:06:14;1.30;99.90
38380;DHT22;38377;47.418;18.882;2022-12-07T00:08:40;1.20;99.90
38380;DHT22;38377;47.418;18.882;2022-12-07T00:11:11;1.00;99.90
38380;DHT22;38377;47.418;18.882;2022-12-07T00:13:38;1.00;99.90
38380;DHT22;38377;47.418;18.882;2022-12-07T00:16:16;0.90;99.90
38380;DHT22;38377;47.418;18.882;2022-12-07T00:18:44;0.80;99.90
38380;DHT22;38377;47.418;18.882;2022-12-07T00:21:11;0.70;99.90
38380;DHT22;38377;47.418;18.882;2022-12-07T00:23:38;0.70;99.90
38380;DHT22;38377;47.418;18.882;2022-12-07T00:26:17;0.70;99.90
38380;DHT22;38377;47.418;18.882;2022-12-07T00:28:55;0.70;99.90
38380;DHT22;38377;47.418;18.882;2022-12-07T00:31:25;0.70;99.90
38380;DHT22;38377;47.418;18.882;2022-12-07T00:33:51;0.60;99.90
38380;DHT22;38377;47.418;18.882;2022-12-07T00:36:19;0.50;99.90
38380;DHT22;38377;47.418;18.882;2022-12-07T00:38:46;0.40;99.90
38380;DHT22;38377;47.418;18.882;2022-12-07T00:41:21;0.40;99.90
38380;DHT22;38377;47.418;18.882;2022-12-07T00:43:48;0.50;99.90
38380;DHT22;38377;47.418;18.882;2022-12-07T00:46:15;0.50;99.90
38380;DHT22;38377;47.418;18.882;2022-12-07T00:48:41;0.70;99.90
38380;DHT22;38377;47.418;18.882;2022-12-07T00:51:09;0.70;99.90
38380;DHT22;38377;47.418;18.882;2022-12-07T00:53:35;0.80;99.90
38380;DHT22;38377;47.418;18.882;2022-12-07T00:56:14;0.90;99.90
38380;DHT22;38377;47.418;18.882;2022-12-07T00:58:40;1.00;99.90
38380;DHT22;38377;47.418;18.882;2022-12-07T01:01:08;1.10;99.90
38380;DHT22;38377;47.418;18.882;2022-12-07T01:03:34;1.10;99.90
38380;DHT22;38377;47.418;18.882;2022-12-07T01:06:00;1.10;99.90
38380;DHT22;38377;47.418;18.882;2022-12-07T01:08:27;1.10;99.90
38380;DHT22;38377;47.418;18.882;2022-12-07T01:11:05;1.00;99.90
38380;DHT22;38377;47.418;18.882;2022-12-07T01:13:32;0.90;99.90
38380;DHT22;38377;47.418;18.882;2022-12-07T01:16:00;1.00;99.90
38380;DHT22;38377;47.418;18.882;2022-12-07T01:18:33;0.90;99.90
38380;DHT22;38377;47.418;18.882;2022-12-07T01:21:03;0.90;99.90
38380;DHT22;38377;47.418;18.882;2022-12-07T01:23:30;0.90;99.90
38380;DHT22;38377;47.418;18.882;2022-12-07T01:26:01;0.80;99.90
38380;DHT22;38377;47.418;18.882;2022-12-07T01:28:27;0.80;99.90
38380;DHT22;38377;47.418;18.882;2022-12-07T01:33:22;0.70;99.90
38380;DHT22;38377;47.418;18.882;2022-12-07T01:35:48;0.80;99.90
38380;DHT22;38377;47.418;18.882;2022-12-07T01:38:14;0.80;99.90
38380;DHT22;38377;47.418;18.882;2022-12-07T01:40:40;0.80;99.90
38380;DHT22;38377;47.418;18.882;2022-12-07T01:43:16;0.90;99.90
38380;DHT22;38377;47.418;18.882;2022-12-07T01:45:43;0.90;99.90
38380;DHT22;38377;47.418;18.882;2022-12-07T01:48:11;1.00;99.90
38380;DHT22;38377;47.418;18.882;2022-12-07T01:50:38;1.20;99.90
38380;DHT22;38377;47.418;18.882;2022-12-07T01:53:06;1.30;99.90
38380;DHT22;38377;47.418;18.882;2022-12-07T01:55:38;1.50;99.90
38380;DHT22;38377;47.418;18.882;2022-12-07T01:58:05;1.60;99.90
38380;DHT22;38377;47.418;18.882;2022-12-07T02:00:32;1.70;99.90
38380;DHT22;38377;47.418;18.882;2022-12-07T02:03:24;1.80;99.90
38380;DHT22;38377;47.418;18.882;2022-12-07T02:05:51;1.80;99.90
38380;DHT22;38377;47.418;18.882;2022-12-07T02:08:18;1.90;99.90
38380;DHT22;38377;47.418;18.882;2022-12-07T02:10:45;2.00;99.90
38380;DHT22;38377;47.418;18.882;2022-12-07T02:13:17;2.10;99.90
38380;DHT22;38377;47.418;18.882;2022-12-07T02:29:25;2.50;99.90
38380;DHT22;38377;47.418;18.882;2022-12-07T02:32:10;2.50;99.90
38380;DHT22;38377;47.418;18.882;2022-12-07T02:34:51;2.50;99.90
38380;DHT22;38377;47.418;18.882;2022-12-07T02:43:10;2.60;99.90
38380;DHT22;38377;47.418;18.882;2022-12-07T02:45:39;2.60;99.90
38380;DHT22;38377;47.418;18.882;2022-12-07T02:48:06;2.60;99.90
38380;DHT22;38377;47.418;18.882;2022-12-07T02:50:33;2.70;99.90
38380;DHT22;38377;47.418;18.882;2022-12-07T02:52:58;2.70;99.90
38380;DHT22;38377;47.418;18.882;2022-12-07T02:55:29;2.80;99.90
38380;DHT22;38377;47.418;18.882;2022-12-07T02:58:20;2.80;99.90
38380;DHT22;38377;47.418;18.882;2022-12-07T03:00:59;2.80;99.90
38380;DHT22;38377;47.418;18.882;2022-12-07T03:03:29;2.90;99.90
38380;DHT22;38377;47.418;18.882;2022-12-07T03:06:16;2.90;99.90
38380;DHT22;38377;47.418;18.882;2022-12-07T03:11:32;3.00;99.90
38380;DHT22;38377;47.418;18.882;2022-12-07T03:14:29;3.00;99.90
38380;DHT22;38377;47.418;18.882;2022-12-07T03:17:10;3.10;99.90
38380;DHT22;38377;47.418;18.882;2022-12-07T03:19:39;3.10;99.90
38380;DHT22;38377;47.418;18.882;2022-12-07T03:22:11;3.10;99.90
38380;DHT22;38377;47.418;18.882;2022-12-07T03:24:58;3.10;99.90
38380;DHT22;38377;47.418;18.882;2022-12-07T03:27:49;3.10;99.90
38380;DHT22;38377;47.418;18.882;2022-12-07T03:30:20;3.10;99.90
38380;DHT22;38377;47.418;18.882;2022-12-07T03:32:55;3.10;99.90
38380;DHT22;38377;47.418;18.882;2022-12-07T03:35:38;3.10;99.90
38380;DHT22;38377;47.418;18.882;2022-12-07T03:38:25;3.10;99.90
38380;DHT22;38377;47.418;18.882;2022-12-07T03:41:12;3.10;99.90
38380;DHT22;38377;47.418;18.882;2022-12-07T03:43:40;3.10;99.90
38380;DHT22;38377;47.418;18.882;2022-12-07T03:49:24;3.20;99.90
38380;DHT22;38377;47.418;18.882;2022-12-07T03:52:26;3.20;99.90
38380;DHT22;38377;47.418;18.882;2022-12-07T03:55:08;3.20;99.90
38380;DHT22;38377;47.418;18.882;2022-12-07T03:57:35;3.20;99.90
38380;DHT22;38377;47.418;18.882;2022-12-07T04:00:04;3.30;99.90
38380;DHT22;38377;47.418;18.882;2022-12-07T04:02:31;3.30;99.90
38380;DHT22;38377;47.418;18.882;2022-12-07T04:04:57;3.30;99.90
38380;DHT22;38377;47.418;18.882;2022-12-07T04:07:23;3.40;99.90
38380;DHT22;38377;47.418;18.882;2022-12-07T04:09:49;3.30;99.90
38380;DHT22;38377;47.418;18.882;2022-12-07T04:12:14;3.30;99.90
38380;DHT22;38377;47.418;18.882;2022-12-07T04:14:40;3.40;99.90
38380;DHT22;38377;47.418;18.882;2022-12-07T04:17:06;3.40;99.90
38380;DHT22;38377;47.418;18.882;2022-12-07T04:19:33;3.40;99.90
38380;DHT22;38377;47.418;18.882;2022-12-07T04:22:00;3.40;99.90
38380;DHT22;38377;47.418;18.882;2022-12-07T04:24:27;3.40;99.90
38380;DHT22;38377;47.418;18.882;2022-12-07T04:26:53;3.40;99.90
38380;DHT22;38377;47.418;18.882;2022-12-07T04:29:19;3.40;99.90
38380;DHT22;38377;47.418;18.882;2022-12-07T04:31:45;3.50;99.90
38380;DHT22;38377;47.418;18.882;2022-12-07T04:34:11;3.50;99.90
38380;DHT22;38377;47.418;18.882;2022-12-07T04:36:38;3.50;99.90
38380;DHT22;38377;47.418;18.882;2022-12-07T04:39:05;3.50;99.90
38380;DHT22;38377;47.418;18.882;2022-12-07T04:41:31;3.50;99.90
38380;DHT22;38377;47.418;18.882;2022-12-07T04:44:00;3.50;99.90
38380;DHT22;38377;47.418;18.882;2022-12-07T04:46:27;3.50;99.90
38380;DHT22;38377;47.418;18.882;2022-12-07T04:48:54;3.50;99.90
38380;DHT22;38377;47.418;18.882;2022-12-07T04:51:22;3.40;99.90
38380;DHT22;38377;47.418;18.882;2022-12-07T04:53:48;3.40;99.90
38380;DHT22;38377;47.418;18.882;2022-12-07T04:56:15;3.50;99.90
38380;DHT22;38377;47.418;18.882;2022-12-07T04:58:42;3.50;99.90
38380;DHT22;38377;47.418;18.882;2022-12-07T05:01:08;3.40;99.90
38380;DHT22;38377;47.418;18.882;2022-12-07T05:03:36;3.40;99.90
38380;DHT22;38377;47.418;18.882;2022-12-07T05:06:02;3.30;99.90
38380;DHT22;38377;47.418;18.882;2022-12-07T05:08:28;3.30;99.90
38380;DHT22;38377;47.418;18.882;2022-12-07T05:10:54;3.20;99.90
38380;DHT22;38377;47.418;18.882;2022-12-07T05:13:19;3.20;99.90
38380;DHT22;38377;47.418;18.882;2022-12-07T05:15:47;3.10;99.90
38380;DHT22;38377;47.418;18.882;2022-12-07T05:18:12;3.10;99.90
38380;DHT22;38377;47.418;18.882;2022-12-07T05:20:39;3.10;99.90
38380;DHT22;38377;47.418;18.882;2022-12-07T05:23:05;3.00;99.90
38380;DHT22;38377;47.418;18.882;2022-12-07T05:25:30;3.00;99.90
38380;DHT22;38377;47.418;18.882;2022-12-07T05:27:57;3.00;99.90
38380;DHT22;38377;47.418;18.882;2022-12-07T05:30:24;3.10;99.90
38380;DHT22;38377;47.418;18.882;2022-12-07T05:32:50;3.00;99.90
38380;DHT22;38377;47.418;18.882;2022-12-07T05:35:17;3.00;99.90
38380;DHT22;38377;47.418;18.882;2022-12-07T05:37:43;3.00;99.90
38380;DHT22;38377;47.418;18.882;2022-12-07T05:40:09;3.00;99.90
38380;DHT22;38377;47.418;18.882;2022-12-07T05:42:35;3.00;99.90
38380;DHT22;38377;47.418;18.882;2022-12-07T05:45:01;3.10;99.90
38380;DHT22;38377;47.418;18.882;2022-12-07T05:47:27;3.00;99.90
38380;DHT22;38377;47.418;18.882;2022-12-07T05:49:52;3.10;99.90
38380;DHT22;38377;47.418;18.882;2022-12-07T05:52:18;3.10;99.90
38380;DHT22;38377;47.418;18.882;2022-12-07T05:54:44;3.00;99.90
38380;DHT22;38377;47.418;18.882;2022-12-07T05:57:10;3.00;99.90
38380;DHT22;38377;47.418;18.882;2022-12-07T05:59:36;3.00;99.90
38380;DHT22;38377;47.418;18.882;2022-12-07T06:02:04;3.10;99.90
38380;DHT22;38377;47.418;18.882;2022-12-07T06:04:33;3.00;99.90
38380;DHT22;38377;47.418;18.882;2022-12-07T06:06:59;3.00;99.90
38380;DHT22;38377;47.418;18.882;2022-12-07T06:09:26;3.00;99.90
38380;DHT22;38377;47.418;18.882;2022-12-07T06:11:52;2.90;99.90
38380;DHT22;38377;47.418;18.882;2022-12-07T06:14:36;3.00;99.90
38380;DHT22;38377;47.418;18.882;2022-12-07T06:17:02;3.00;99.90
38380;DHT22;38377;47.418;18.882;2022-12-07T06:19:28;3.00;99.90
38380;DHT22;38377;47.418;18.882;2022-12-07T06:21:54;2.90;99.90
38380;DHT22;38377;47.418;18.882;2022-12-07T06:24:20;3.00;99.90
38380;DHT22;38377;47.418;18.882;2022-12-07T06:26:45;2.90;99.90
38380;DHT22;38377;47.418;18.882;2022-12-07T06:29:12;2.90;99.90
38380;DHT22;38377;47.418;18.882;2022-12-07T06:31:38;3.00;99.90
38380;DHT22;38377;47.418;18.882;2022-12-07T06:34:07;3.00;99.90
38380;DHT22;38377;47.418;18.882;2022-12-07T06:36:34;3.00;99.90
38380;DHT22;38377;47.418;18.882;2022-12-07T06:39:00;2.90;99.90
38380;DHT22;38377;47.418;18.882;2022-12-07T06:41:25;2.90;99.90
38380;DHT22;38377;47.418;18.882;2022-12-07T06:43:51;2.90;99.90
38380;DHT22;38377;47.418;18.882;2022-12-07T06:46:17;3.00;99.90
38380;DHT22;38377;47.418;18.882;2022-12-07T06:51:18;3.00;99.90
38380;DHT22;38377;47.418;18.882;2022-12-07T06:53:43;3.00;99.90
38380;DHT22;38377;47.418;18.882;2022-12-07T06:56:09;3.10;99.90
38380;DHT22;38377;47.418;18.882;2022-12-07T06:58:35;3.10;99.90
38380;DHT22;38377;47.418;18.882;2022-12-07T07:01:00;3.10;99.90
38380;DHT22;38377;47.418;18.882;2022-12-07T07:03:26;3.10;99.90
38380;DHT22;38377;47.418;18.882;2022-12-07T07:05:52;3.20;99.90
38380;DHT22;38377;47.418;18.882;2022-12-07T07:08:18;3.20;99.90
38380;DHT22;38377;47.418;18.882;2022-12-07T07:10:43;3.20;99.90
38380;DHT22;38377;47.418;18.882;2022-12-07T07:13:09;3.20;99.90
38380;DHT22;38377;47.418;18.882;2022-12-07T07:15:36;3.20;99.90
38380;DHT22;38377;47.418;18.882;2022-12-07T07:18:03;3.30;99.90
38380;DHT22;38377;47.418;18.882;2022-12-07T07:20:29;3.20;99.90
38380;DHT22;38377;47.418;18.882;2022-12-07T07:22:55;3.20;99.90
38380;DHT22;38377;47.418;18.882;2022-12-07T07:25:21;3.30;99.90
38380;DHT22;38377;47.418;18.882;2022-12-07T07:27:46;3.30;99.90
38380;DHT22;38377;47.418;18.882;2022-12-07T07:30:12;3.30;99.90
38380;DHT22;38377;47.418;18.882;2022-12-07T07:32:38;3.30;99.90
38380;DHT22;38377;47.418;18.882;2022-12-07T07:35:04;3.40;99.90
38380;DHT22;38377;47.418;18.882;2022-12-07T07:37:30;3.40;99.90
38380;DHT22;38377;47.418;18.882;2022-12-07T07:39:55;3.40;99.90
38380;DHT22;38377;47.418;18.882;2022-12-07T07:42:21;3.40;99.90
38380;DHT22;38377;47.418;18.882;2022-12-07T07:44:47;3.40;99.90
38380;DHT22;38377;47.418;18.882;2022-12-07T07:47:13;3.50;99.90
38380;DHT22;38377;47.418;18.882;2022-12-07T07:49:38;3.50;99.90
38380;DHT22;38377;47.418;18.882;2022-12-07T07:52:05;3.50;99.90
38380;DHT22;38377;47.418;18.882;2022-12-07T07:54:31;3.60;99.90
38380;DHT22;38377;47.418;18.882;2022-12-07T07:56:57;3.60;99.90
38380;DHT22;38377;47.418;18.882;2022-12-07T07:59:23;3.60;99.90
38380;DHT22;38377;47.418;18.882;2022-12-07T08:01:50;3.60;99.90
38380;DHT22;38377;47.418;18.882;2022-12-07T08:04:15;3.70;99.90
38380;DHT22;38377;47.418;18.882;2022-12-07T08:06:41;3.70;99.90
38380;DHT22;38377;47.418;18.882;2022-12-07T08:09:08;3.80;99.90
38380;DHT22;38377;47.418;18.882;2022-12-07T08:11:34;3.80;99.90
38380;DHT22;38377;47.418;18.882;2022-12-07T08:14:00;3.80;99.90
38380;DHT22;38377;47.418;18.882;2022-12-07T08:16:28;3.90;99.90
38380;DHT22;38377;47.418;18.882;2022-12-07T08:18:54;3.90;99.90
38380;DHT22;38377;47.418;18.882;2022-12-07T08:21:20;3.90;99.90
38380;DHT22;38377;47.418;18.882;2022-12-07T08:23:46;4.00;99.90
38380;DHT22;38377;47.418;18.882;2022-12-07T08:26:15;4.00;99.90
38380;DHT22;38377;47.418;18.882;2022-12-07T08:28:41;4.10;99.90
38380;DHT22;38377;47.418;18.882;2022-12-07T08:31:11;4.10;99.90
38380;DHT22;38377;47.418;18.882;2022-12-07T08:33:37;4.20;99.90
38380;DHT22;38377;47.418;18.882;2022-12-07T08:36:07;4.20;99.90
38380;DHT22;38377;47.418;18.882;2022-12-07T08:38:37;4.30;99.90
38380;DHT22;38377;47.418;18.882;2022-12-07T08:41:04;4.40;99.90
38380;DHT22;38377;47.418;18.882;2022-12-07T08:43:30;4.40;99.90
38380;DHT22;38377;47.418;18.882;2022-12-07T08:48:37;4.50;99.90
38380;DHT22;38377;47.418;18.882;2022-12-07T08:51:04;4.60;99.90
38380;DHT22;38377;47.418;18.882;2022-12-07T08:53:30;4.70;99.90
38380;DHT22;38377;47.418;18.882;2022-12-07T08:55:57;4.80;99.90
38380;DHT22;38377;47.418;18.882;2022-12-07T08:58:23;4.90;99.90
38380;DHT22;38377;47.418;18.882;2022-12-07T09:00:49;5.00;99.90
38380;DHT22;38377;47.418;18.882;2022-12-07T09:03:15;5.00;99.90
38380;DHT22;38377;47.418;18.882;2022-12-07T09:05:40;5.10;99.90
38380;DHT22;38377;47.418;18.882;2022-12-07T09:08:06;5.10;99.90
38380;DHT22;38377;47.418;18.882;2022-12-07T09:10:32;5.10;99.90
38380;DHT22;38377;47.418;18.882;2022-12-07T09:12:58;5.00;99.90
38380;DHT22;38377;47.418;18.882;2022-12-07T09:15:27;5.10;99.90
38380;DHT22;38377;47.418;18.882;2022-12-07T09:17:53;5.20;99.90
38380;DHT22;38377;47.418;18.882;2022-12-07T09:20:19;5.20;99.90
38380;DHT22;38377;47.418;18.882;2022-12-07T09:22:45;5.30;99.90
38380;DHT22;38377;47.418;18.882;2022-12-07T09:25:11;5.20;99.90
38380;DHT22;38377;47.418;18.882;2022-12-07T09:27:36;5.30;99.90
38380;DHT22;38377;47.418;18.882;2022-12-07T09:30:03;5.30;99.90
38380;DHT22;38377;47.418;18.882;2022-12-07T09:32:29;5.30;99.90
38380;DHT22;38377;47.418;18.882;2022-12-07T09:34:55;5.30;99.90
38380;DHT22;38377;47.418;18.882;2022-12-07T09:37:21;5.40;99.90
38380;DHT22;38377;47.418;18.882;2022-12-07T09:39:46;5.40;99.90
38380;DHT22;38377;47.418;18.882;2022-12-07T09:44:49;5.40;99.90
38380;DHT22;38377;47.418;18.882;2022-12-07T09:47:15;5.40;99.90
38380;DHT22;38377;47.418;18.882;2022-12-07T09:49:41;5.40;99.90
38380;DHT22;38377;47.418;18.882;2022-12-07T09:52:17;5.50;99.90
38380;DHT22;38377;47.418;18.882;2022-12-07T09:54:47;5.40;99.90
38380;DHT22;38377;47.418;18.882;2022-12-07T09:57:13;5.40;99.90
38380;DHT22;38377;47.418;18.882;2022-12-07T09:59:40;5.50;99.90
38380;DHT22;38377;47.418;18.882;2022-12-07T10:02:37;5.60;99.90
38380;DHT22;38377;47.418;18.882;2022-12-07T10:05:06;5.60;99.90
38380;DHT22;38377;47.418;18.882;2022-12-07T10:07:32;5.60;99.90
38380;DHT22;38377;47.418;18.882;2022-12-07T10:09:58;5.50;99.90
38380;DHT22;38377;47.418;18.882;2022-12-07T10:12:23;5.60;99.90
38380;DHT22;38377;47.418;18.882;2022-12-07T10:15:07;5.60;99.90
38380;DHT22;38377;47.418;18.882;2022-12-07T10:20:20;5.60;99.90
38380;DHT22;38377;47.418;18.882;2022-12-07T10:23:00;5.70;99.90
38380;DHT22;38377;47.418;18.882;2022-12-07T10:25:35;5.80;99.90
38380;DHT22;38377;47.418;18.882;2022-12-07T10:30:33;6.00;99.90
38380;DHT22;38377;47.418;18.882;2022-12-07T10:33:30;6.20;99.90
38380;DHT22;38377;47.418;18.882;2022-12-07T10:35:57;6.30;99.90
38380;DHT22;38377;47.418;18.882;2022-12-07T10:38:26;6.30;99.90
38380;DHT22;38377;47.418;18.882;2022-12-07T10:41:06;6.30;99.90
38380;DHT22;38377;47.418;18.882;2022-12-07T10:43:32;6.30;99.90
38380;DHT22;38377;47.418;18.882;2022-12-07T10:54:26;6.40;99.90
38380;DHT22;38377;47.418;18.882;2022-12-07T11:02:59;6.30;99.90
38380;DHT22;38377;47.418;18.882;2022-12-07T11:05:39;6.40;99.90
38380;DHT22;38377;47.418;18.882;2022-12-07T11:09:03;6.30;99.90
38380;DHT22;38377;47.418;18.882;2022-12-07T11:11:42;6.40;99.90
38380;DHT22;38377;47.418;18.882;2022-12-07T11:17:10;6.40;99.90
38380;DHT22;38377;47.418;18.882;2022-12-07T11:20:02;6.40;99.90
38380;DHT22;38377;47.418;18.882;2022-12-07T11:23:18;6.50;99.90
38380;DHT22;38377;47.418;18.882;2022-12-07T11:28:17;6.60;99.90
38380;DHT22;38377;47.418;18.882;2022-12-07T11:36:44;6.80;99.90
38380;DHT22;38377;47.418;18.882;2022-12-07T11:39:28;6.80;99.90
38380;DHT22;38377;47.418;18.882;2022-12-07T11:42:12;6.60;99.90
38380;DHT22;38377;47.418;18.882;2022-12-07T11:50:23;6.50;99.90
38380;DHT22;38377;47.418;18.882;2022-12-07T11:52:56;6.50;99.90
38380;DHT22;38377;47.418;18.882;2022-12-07T11:55:47;6.50;99.90
38380;DHT22;38377;47.418;18.882;2022-12-07T12:06:35;6.50;99.90
38380;DHT22;38377;47.418;18.882;2022-12-07T12:17:21;6.60;99.90
38380;DHT22;38377;47.418;18.882;2022-12-07T12:22:44;6.50;99.90
38380;DHT22;38377;47.418;18.882;2022-12-07T12:25:29;6.40;99.90
38380;DHT22;38377;47.418;18.882;2022-12-07T12:27:58;6.40;99.90
38380;DHT22;38377;47.418;18.882;2022-12-07T12:30:37;6.40;99.90
38380;DHT22;38377;47.418;18.882;2022-12-07T12:33:28;6.30;99.90
38380;DHT22;38377;47.418;18.882;2022-12-07T12:46:59;6.40;99.90
38380;DHT22;38377;47.418;18.882;2022-12-07T12:55:22;6.40;99.90
38380;DHT22;38377;47.418;18.882;2022-12-07T13:00:46;6.40;99.90
38380;DHT22;38377;47.418;18.882;2022-12-07T13:03:29;6.30;99.90
38380;DHT22;38377;47.418;18.882;2022-12-07T13:06:32;6.30;99.90
38380;DHT22;38377;47.418;18.882;2022-12-07T13:09:01;6.30;99.90
38380;DHT22;38377;47.418;18.882;2022-12-07T13:11:36;6.30;99.90
38380;DHT22;38377;47.418;18.882;2022-12-07T13:17:36;6.30;99.90
38380;DHT22;38377;47.418;18.882;2022-12-07T13:27:41;6.30;99.90
38380;DHT22;38377;47.418;18.882;2022-12-07T13:30:18;6.20;99.90
38380;DHT22;38377;47.418;18.882;2022-12-07T13:32:55;6.20;99.90
38380;DHT22;38377;47.418;18.882;2022-12-07T13:37:53;6.00;99.90
38380;DHT22;38377;47.418;18.882;2022-12-07T13:40:22;6.00;99.90
38380;DHT22;38377;47.418;18.882;2022-12-07T13:42:47;6.00;99.90
38380;DHT22;38377;47.418;18.882;2022-12-07T13:45:23;6.00;99.90
38380;DHT22;38377;47.418;18.882;2022-12-07T13:48:35;5.90;99.90
38380;DHT22;38377;47.418;18.882;2022-12-07T13:51:03;5.90;99.90
38380;DHT22;38377;47.418;18.882;2022-12-07T13:53:29;5.80;99.90
38380;DHT22;38377;47.418;18.882;2022-12-07T13:55:59;5.80;99.90
38380;DHT22;38377;47.418;18.882;2022-12-07T13:58:27;5.80;99.90
38380;DHT22;38377;47.418;18.882;2022-12-07T14:00:55;5.80;99.90
38380;DHT22;38377;47.418;18.882;2022-12-07T14:03:28;5.80;99.90
38380;DHT22;38377;47.418;18.882;2022-12-07T14:06:11;5.80;99.90
38380;DHT22;38377;47.418;18.882;2022-12-07T14:08:38;5.70;99.90
38380;DHT22;38377;47.418;18.882;2022-12-07T14:11:04;5.70;99.90
38380;DHT22;38377;47.418;18.882;2022-12-07T14:13:44;5.70;99.90
38380;DHT22;38377;47.418;18.882;2022-12-07T14:16:27;5.70;99.90
38380;DHT22;38377;47.418;18.882;2022-12-07T14:19:00;5.60;99.90
38380;DHT22;38377;47.418;18.882;2022-12-07T14:21:32;5.60;99.90
38380;DHT22;38377;47.418;18.882;2022-12-07T14:24:12;5.50;99.90
38380;DHT22;38377;47.418;18.882;2022-12-07T14:26:40;5.50;99.90
38380;DHT22;38377;47.418;18.882;2022-12-07T14:29:32;5.40;99.90
38380;DHT22;38377;47.418;18.882;2022-12-07T14:32:19;5.40;99.90
38380;DHT22;38377;47.418;18.882;2022-12-07T14:35:01;5.40;99.90
38380;DHT22;38377;47.418;18.882;2022-12-07T14:37:28;5.30;99.90
38380;DHT22;38377;47.418;18.882;2022-12-07T14:39:55;5.30;99.90
38380;DHT22;38377;47.418;18.882;2022-12-07T14:42:24;5.30;99.90
38380;DHT22;38377;47.418;18.882;2022-12-07T14:44:51;5.20;99.90
38380;DHT22;38377;47.418;18.882;2022-12-07T14:47:17;5.10;99.90
38380;DHT22;38377;47.418;18.882;2022-12-07T14:49:42;5.00;99.90
38380;DHT22;38377;47.418;18.882;2022-12-07T14:52:15;5.00;99.90
38380;DHT22;38377;47.418;18.882;2022-12-07T14:54:42;4.90;99.90
38380;DHT22;38377;47.418;18.882;2022-12-07T14:57:09;4.90;99.90
38380;DHT22;38377;47.418;18.882;2022-12-07T14:59:36;4.90;99.90
38380;DHT22;38377;47.418;18.882;2022-12-07T15:02:02;4.80;99.90
38380;DHT22;38377;47.418;18.882;2022-12-07T15:04:28;4.80;99.90
38380;DHT22;38377;47.418;18.882;2022-12-07T15:06:59;4.80;99.90
38380;DHT22;38377;47.418;18.882;2022-12-07T15:09:25;4.70;99.90
38380;DHT22;38377;47.418;18.882;2022-12-07T15:11:51;4.60;99.90
38380;DHT22;38377;47.418;18.882;2022-12-07T15:14:16;4.50;99.90
38380;DHT22;38377;47.418;18.882;2022-12-07T15:16:42;4.50;99.90
38380;DHT22;38377;47.418;18.882;2022-12-07T15:19:23;4.50;99.90
38380;DHT22;38377;47.418;18.882;2022-12-07T15:21:52;4.40;99.90
38380;DHT22;38377;47.418;18.882;2022-12-07T15:24:18;4.30;99.90
38380;DHT22;38377;47.418;18.882;2022-12-07T15:26:44;4.30;99.90
38380;DHT22;38377;47.418;18.882;2022-12-07T15:29:11;4.20;99.90
38380;DHT22;38377;47.418;18.882;2022-12-07T15:31:37;4.10;99.90
38380;DHT22;38377;47.418;18.882;2022-12-07T15:34:03;4.00;99.90
38380;DHT22;38377;47.418;18.882;2022-12-07T15:36:31;3.90;99.90
38380;DHT22;38377;47.418;18.882;2022-12-07T15:38:58;3.80;99.90
38380;DHT22;38377;47.418;18.882;2022-12-07T15:41:24;3.70;99.90
38380;DHT22;38377;47.418;18.882;2022-12-07T15:43:50;3.70;99.90
38380;DHT22;38377;47.418;18.882;2022-12-07T15:46:39;3.70;99.90
38380;DHT22;38377;47.418;18.882;2022-12-07T15:49:06;3.60;99.90
38380;DHT22;38377;47.418;18.882;2022-12-07T15:51:34;3.50;99.90
38380;DHT22;38377;47.418;18.882;2022-12-07T15:54:00;3.40;99.90
38380;DHT22;38377;47.418;18.882;2022-12-07T15:56:25;3.30;99.90
38380;DHT22;38377;47.418;18.882;2022-12-07T15:58:51;3.30;99.90
38380;DHT22;38377;47.418;18.882;2022-12-07T16:01:18;3.20;99.90
38380;DHT22;38377;47.418;18.882;2022-12-07T16:03:45;3.10;99.90
38380;DHT22;38377;47.418;18.882;2022-12-07T16:06:12;3.00;99.90
38380;DHT22;38377;47.418;18.882;2022-12-07T16:08:44;2.90;99.90
38380;DHT22;38377;47.418;18.882;2022-12-07T16:11:10;2.80;99.90
38380;DHT22;38377;47.418;18.882;2022-12-07T16:13:36;2.60;99.90
38380;DHT22;38377;47.418;18.882;2022-12-07T16:16:04;2.50;99.90
38380;DHT22;38377;47.418;18.882;2022-12-07T16:18:30;2.30;99.90
38380;DHT22;38377;47.418;18.882;2022-12-07T16:20:56;2.10;99.90
38380;DHT22;38377;47.418;18.882;2022-12-07T16:23:21;2.00;99.90
38380;DHT22;38377;47.418;18.882;2022-12-07T16:25:47;1.90;99.90
38380;DHT22;38377;47.418;18.882;2022-12-07T16:28:12;1.80;99.90
38380;DHT22;38377;47.418;18.882;2022-12-07T16:30:38;1.70;99.90
38380;DHT22;38377;47.418;18.882;2022-12-07T16:33:04;1.60;99.90
38380;DHT22;38377;47.418;18.882;2022-12-07T16:35:29;1.50;99.90
38380;DHT22;38377;47.418;18.882;2022-12-07T16:37:55;1.50;99.90
38380;DHT22;38377;47.418;18.882;2022-12-07T16:40:21;1.40;99.90
38380;DHT22;38377;47.418;18.882;2022-12-07T16:42:46;1.40;99.90
38380;DHT22;38377;47.418;18.882;2022-12-07T16:45:12;1.40;99.90
38380;DHT22;38377;47.418;18.882;2022-12-07T16:47:39;1.30;99.90
38380;DHT22;38377;47.418;18.882;2022-12-07T16:50:05;1.10;99.90
38380;DHT22;38377;47.418;18.882;2022-12-07T16:52:33;1.10;99.90
38380;DHT22;38377;47.418;18.882;2022-12-07T16:54:59;1.10;99.90
38380;DHT22;38377;47.418;18.882;2022-12-07T16:57:25;1.00;99.90
38380;DHT22;38377;47.418;18.882;2022-12-07T16:59:51;1.00;99.90
38380;DHT22;38377;47.418;18.882;2022-12-07T17:02:17;1.00;99.90
38380;DHT22;38377;47.418;18.882;2022-12-07T17:04:43;1.00;99.90
38380;DHT22;38377;47.418;18.882;2022-12-07T17:07:10;1.00;99.90
38380;DHT22;38377;47.418;18.882;2022-12-07T17:09:38;1.00;99.90
38380;DHT22;38377;47.418;18.882;2022-12-07T17:12:04;1.00;99.90
38380;DHT22;38377;47.418;18.882;2022-12-07T17:14:33;1.10;99.90
38380;DHT22;38377;47.418;18.882;2022-12-07T17:17:17;1.10;99.90
38380;DHT22;38377;47.418;18.882;2022-12-07T17:19:43;1.00;99.90
38380;DHT22;38377;47.418;18.882;2022-12-07T17:22:09;0.80;99.90
38380;DHT22;38377;47.418;18.882;2022-12-07T17:24:38;0.80;99.90
38380;DHT22;38377;47.418;18.882;2022-12-07T17:27:03;0.70;99.90
38380;DHT22;38377;47.418;18.882;2022-12-07T17:29:29;0.70;99.90
38380;DHT22;38377;47.418;18.882;2022-12-07T17:31:55;0.60;99.90
38380;DHT22;38377;47.418;18.882;2022-12-07T17:34:20;0.60;99.90
38380;DHT22;38377;47.418;18.882;2022-12-07T17:36:46;0.50;99.90
38380;DHT22;38377;47.418;18.882;2022-12-07T17:39:15;0.40;99.90
38380;DHT22;38377;47.418;18.882;2022-12-07T17:41:41;0.40;99.90
38380;DHT22;38377;47.418;18.882;2022-12-07T17:44:26;0.40;99.90
38380;DHT22;38377;47.418;18.882;2022-12-07T17:46:53;0.40;99.90
38380;DHT22;38377;47.418;18.882;2022-12-07T17:49:20;0.50;99.90
38380;DHT22;38377;47.418;18.882;2022-12-07T17:51:46;0.50;99.90